METAR Data
IDs: Format: Raw Decoded Include TAF

Data at: 1738 UTC 20 May 2022

LELC 201730Z 04014KT 010V070 CAVOK 23/17 Q1020 NOSIG